Time;durP1;ratioP1;P1;durP2;ratioP2;P2;SDS_P1;SDS_P2;PMS_P1;PMS_P2;Temp;Humidity;BMP_temperature;BMP_pressure;BME280_temperature;BME280_humidity;BME280_pressure;Samples;Min_cycle;Max_cycle;Signal;HPM_P1;HPM_P2
2022/08/17 00:01:01;;;;;;;2.13;1.00;;;11.10;99.90;;;;;;5030363;28;20164;-80
2022/08/17 00:03:31;;;;;;;2.75;1.17;;;11.20;99.90;;;;;;5031870;28;20167;-78
2022/08/17 00:06:03;;;;;;;0.77;0.70;;;11.30;99.90;;;;;;5031725;28;20485;-79
2022/08/17 00:08:35;;;;;;;4.45;1.00;;;11.40;99.90;;;;;;5029815;28;20033;-79
2022/08/17 00:11:07;;;;;;;1.70;1.00;;;11.40;99.90;;;;;;5032421;28;20028;-79
2022/08/17 00:13:41;;;;;;;4.65;1.25;;;11.50;99.90;;;;;;5030023;28;20025;-80
2022/08/17 00:16:17;;;;;;;0.93;0.73;;;11.60;99.90;;;;;;5033633;28;20018;-80
2022/08/17 00:18:49;;;;;;;1.45;0.80;;;11.70;99.90;;;;;;5032225;28;20026;-81
2022/08/17 00:21:19;;;;;;;1.30;0.60;;;11.80;99.90;;;;;;5032726;28;20025;-82
2022/08/17 00:23:47;;;;;;;3.33;0.80;;;11.90;99.90;;;;;;5032550;28;20018;-81
2022/08/17 00:26:16;;;;;;;2.20;0.80;;;12.00;99.90;;;;;;5031528;28;20033;-81
2022/08/17 00:28:43;;;;;;;3.45;0.82;;;12.20;99.90;;;;;;5031438;28;20033;-80
2022/08/17 00:31:12;;;;;;;0.70;0.50;;;12.30;99.90;;;;;;5032503;28;20156;-81
2022/08/17 00:33:41;;;;;;;1.00;0.70;;;12.50;99.90;;;;;;5032822;28;20022;-81
2022/08/17 00:36:09;;;;;;;1.17;0.75;;;12.70;99.90;;;;;;5031385;28;20023;-80
2022/08/17 00:38:37;;;;;;;1.73;0.75;;;12.80;99.90;;;;;;5032058;28;20032;-79
2022/08/17 00:41:17;;;;;;;1.15;0.68;;;12.80;99.90;;;;;;5032084;28;20038;-80
2022/08/17 00:43:51;;;;;;;1.45;0.60;;;12.90;99.90;;;;;;5030043;28;20143;-80
2022/08/17 00:46:22;;;;;;;0.98;0.70;;;12.90;99.90;;;;;;5031379;28;20029;-78
2022/08/17 00:48:50;;;;;;;0.90;0.63;;;12.90;99.90;;;;;;5035133;28;20021;-78
2022/08/17 00:51:30;;;;;;;2.53;0.82;;;12.80;99.90;;;;;;5035213;28;20021;-79
2022/08/17 00:54:29;;;;;;;4.75;0.70;;;12.80;99.90;;;;;;5034466;28;20022;-80
2022/08/17 00:57:08;;;;;;;1.77;1.02;;;12.80;99.90;;;;;;5014525;28;20120;-80
2022/08/17 00:59:43;;;;;;;1.40;0.70;;;12.90;99.90;;;;;;5015541;28;20172;-79
2022/08/17 01:02:14;;;;;;;1.10;0.60;;;12.90;99.90;;;;;;5015909;28;20048;-80
2022/08/17 01:04:47;;;;;;;1.35;0.88;;;13.00;99.90;;;;;;5015733;28;20030;-81
2022/08/17 01:07:15;;;;;;;0.82;0.57;;;13.10;99.90;;;;;;5014847;28;20030;-79
2022/08/17 01:09:43;;;;;;;0.90;0.70;;;13.20;99.90;;;;;;5015940;28;20022;-78
2022/08/17 01:12:12;;;;;;;4.18;0.60;;;13.30;99.90;;;;;;5015713;28;20561;-80
2022/08/17 01:14:40;;;;;;;5.32;0.60;;;13.40;99.90;;;;;;5017869;28;20060;-79
2022/08/17 01:17:09;;;;;;;2.42;0.77;;;13.40;99.90;;;;;;5033138;28;20030;-78
2022/08/17 01:19:43;;;;;;;0.75;0.55;;;13.40;99.90;;;;;;5032326;28;20029;-80
2022/08/17 01:22:17;;;;;;;1.02;0.55;;;13.50;99.90;;;;;;5032980;28;20021;-80
2022/08/17 01:24:52;;;;;;;0.50;0.45;;;13.60;99.90;;;;;;5033767;28;20111;-79
2022/08/17 01:27:20;;;;;;;0.70;0.40;;;13.70;99.90;;;;;;5034235;28;20033;-82
2022/08/17 01:29:51;;;;;;;2.20;0.57;;;13.80;99.90;;;;;;5034724;28;20017;-83
2022/08/17 01:32:19;;;;;;;3.80;0.52;;;13.90;99.90;;;;;;5034673;28;20030;-83
2022/08/17 01:34:49;;;;;;;1.40;0.63;;;14.00;99.90;;;;;;5032350;28;20013;-79
2022/08/17 01:37:17;;;;;;;0.80;0.50;;;14.00;99.90;;;;;;5034636;28;20029;-80
2022/08/17 01:39:50;;;;;;;1.63;0.55;;;14.00;99.90;;;;;;5034428;28;20029;-81
2022/08/17 01:42:33;;;;;;;1.75;0.73;;;14.10;99.90;;;;;;5034510;28;20020;-81
2022/08/17 01:45:07;;;;;;;0.47;0.38;;;14.10;99.90;;;;;;5033674;28;20099;-81
2022/08/17 01:47:36;;;;;;;1.08;0.50;;;14.20;99.90;;;;;;5034027;28;20375;-82
2022/08/17 01:50:16;;;;;;;1.15;0.50;;;14.30;99.90;;;;;;5033547;28;20026;-80
2022/08/17 01:52:45;;;;;;;5.35;0.80;;;14.30;99.90;;;;;;5034451;28;20032;-82
2022/08/17 01:55:17;;;;;;;1.90;0.68;;;14.30;99.90;;;;;;5034102;28;20105;-81
2022/08/17 01:57:44;;;;;;;3.88;0.50;;;14.40;99.90;;;;;;5033785;28;20018;-79
2022/08/17 02:00:13;;;;;;;2.50;0.80;;;14.40;99.90;;;;;;5032660;28;20033;-81
2022/08/17 02:02:44;;;;;;;1.73;0.70;;;14.40;99.90;;;;;;5032298;28;20379;-80
2022/08/17 02:05:12;;;;;;;1.42;0.55;;;14.40;99.90;;;;;;5034386;28;20029;-80
2022/08/17 02:07:40;;;;;;;3.17;0.77;;;14.40;99.90;;;;;;5034400;28;20091;-81
2022/08/17 02:10:09;;;;;;;1.00;0.65;;;14.40;99.90;;;;;;5032145;28;20390;-78
2022/08/17 02:12:37;;;;;;;0.93;0.45;;;14.50;99.90;;;;;;5034539;28;20045;-81
2022/08/17 02:15:08;;;;;;;3.22;0.45;;;14.60;99.90;;;;;;5034649;28;20021;-80
2022/08/17 02:17:36;;;;;;;1.67;0.70;;;14.70;99.90;;;;;;5034865;28;20048;-79
2022/08/17 02:20:04;;;;;;;1.60;0.50;;;14.80;99.90;;;;;;5034432;28;20097;-80
2022/08/17 02:22:32;;;;;;;2.67;0.50;;;14.70;99.90;;;;;;5033253;28;20033;-80
2022/08/17 02:25:01;;;;;;;0.98;0.45;;;14.80;99.90;;;;;;5031592;28;20017;-82
2022/08/17 02:27:29;;;;;;;2.17;0.50;;;14.80;99.90;;;;;;5033833;28;20041;-80
2022/08/17 02:29:56;;;;;;;2.05;0.63;;;14.80;99.90;;;;;;5034463;28;20478;-81
2022/08/17 02:32:26;;;;;;;0.90;0.40;;;14.80;99.90;;;;;;5033956;28;20104;-82
2022/08/17 02:34:54;;;;;;;1.55;0.80;;;14.80;99.90;;;;;;5033950;28;20021;-79
2022/08/17 02:37:22;;;;;;;6.95;0.50;;;14.80;99.90;;;;;;5031935;28;20020;-81
2022/08/17 02:39:50;;;;;;;1.65;0.47;;;14.90;99.90;;;;;;5033889;28;20174;-80
2022/08/17 02:42:18;;;;;;;0.47;0.40;;;14.80;99.90;;;;;;5033547;28;20049;-80
2022/08/17 02:44:45;;;;;;;0.85;0.60;;;14.80;99.90;;;;;;5033516;28;20013;-80
2022/08/17 02:47:13;;;;;;;1.27;0.80;;;14.80;99.90;;;;;;5033195;28;20037;-80
2022/08/17 02:49:41;;;;;;;1.35;0.75;;;14.90;99.90;;;;;;5031165;28;20363;-80
2022/08/17 02:52:09;;;;;;;6.63;0.63;;;14.90;99.90;;;;;;5033005;28;20025;-81
2022/08/17 02:54:36;;;;;;;1.10;0.43;;;15.00;99.90;;;;;;5032812;28;20474;-79
2022/08/17 02:57:04;;;;;;;0.70;0.43;;;15.10;99.90;;;;;;5033302;28;20021;-80
2022/08/17 02:59:32;;;;;;;0.80;0.50;;;15.00;99.90;;;;;;5033402;28;20382;-79
2022/08/17 03:02:01;;;;;;;3.33;0.60;;;15.10;99.90;;;;;;5033407;28;20049;-80
2022/08/17 03:04:30;;;;;;;3.90;0.70;;;15.10;99.90;;;;;;5032356;28;20109;-80
2022/08/17 03:06:57;;;;;;;1.48;0.45;;;15.10;99.90;;;;;;5033794;28;20038;-79
2022/08/17 03:09:25;;;;;;;2.05;0.40;;;15.10;99.90;;;;;;5033867;28;20079;-80
2022/08/17 03:11:53;;;;;;;1.48;0.50;;;15.20;99.90;;;;;;5033589;28;20037;-79
2022/08/17 03:14:20;;;;;;;0.60;0.40;;;15.30;99.90;;;;;;5032948;28;20052;-80
2022/08/17 03:16:48;;;;;;;0.88;0.50;;;15.30;99.90;;;;;;5033449;28;20034;-81
2022/08/17 03:19:16;;;;;;;2.47;0.68;;;15.30;99.90;;;;;;5010930;28;20456;-82
2022/08/17 03:21:43;;;;;;;1.92;0.80;;;15.40;99.90;;;;;;5032819;28;20018;-80
2022/08/17 03:24:14;;;;;;;2.05;0.77;;;15.40;99.90;;;;;;5032177;28;20043;-80
2022/08/17 03:26:41;;;;;;;0.75;0.43;;;15.40;99.90;;;;;;5032612;28;20143;-81
2022/08/17 03:29:09;;;;;;;1.08;0.40;;;15.40;99.90;;;;;;5031595;28;20038;-79
2022/08/17 03:31:37;;;;;;;1.25;0.40;;;15.40;99.90;;;;;;5031612;28;20017;-80
2022/08/17 03:34:05;;;;;;;0.95;0.40;;;15.40;99.90;;;;;;5014386;28;20044;-80
2022/08/17 03:36:32;;;;;;;0.90;0.57;;;15.40;99.90;;;;;;5032396;28;20096;-79
2022/08/17 03:39:00;;;;;;;2.22;0.60;;;15.40;99.90;;;;;;5032056;28;20036;-80
2022/08/17 03:41:28;;;;;;;2.83;0.55;;;15.40;99.90;;;;;;5032421;28;20108;-79
2022/08/17 03:43:55;;;;;;;0.95;0.43;;;15.50;99.90;;;;;;5030201;28;20018;-80
2022/08/17 03:57:30;;;;;;;1.83;0.50;;;15.80;99.90;;;;;;5032585;28;20505;-80
2022/08/17 03:59:58;;;;;;;0.93;0.45;;;15.70;99.90;;;;;;5032310;28;20017;-80
2022/08/17 04:02:32;;;;;;;6.78;0.50;;;15.70;99.90;;;;;;5032145;28;20057;-80
2022/08/17 04:05:01;;;;;;;1.77;0.52;;;15.80;99.90;;;;;;5032401;28;20021;-80
2022/08/17 04:07:30;;;;;;;0.50;0.30;;;15.90;99.90;;;;;;5031993;28;20036;-79
2022/08/17 04:09:58;;;;;;;2.15;0.70;;;15.90;99.90;;;;;;5029698;28;20028;-79
2022/08/17 04:12:30;;;;;;;0.75;0.50;;;15.90;99.90;;;;;;5032122;28;20021;-80
2022/08/17 04:14:58;;;;;;;1.33;0.63;;;15.90;99.90;;;;;;5032048;28;20032;-80
2022/08/17 04:17:28;;;;;;;0.88;0.40;;;15.90;99.90;;;;;;5031951;28;20034;-79
2022/08/17 04:19:56;;;;;;;1.25;0.55;;;15.90;99.90;;;;;;5030033;28;20026;-78
2022/08/17 04:22:24;;;;;;;1.38;0.70;;;15.90;99.90;;;;;;5032952;28;20029;-78
2022/08/17 04:24:52;;;;;;;1.40;0.45;;;15.90;99.90;;;;;;5035568;28;20096;-78
2022/08/17 04:27:20;;;;;;;0.82;0.60;;;15.80;99.90;;;;;;5035718;28;20030;-79
2022/08/17 04:29:48;;;;;;;1.27;0.57;;;15.70;99.90;;;;;;5035774;28;20048;-78
2022/08/17 04:32:15;;;;;;;1.17;0.55;;;15.60;99.90;;;;;;5036130;28;20104;-78
2022/08/17 04:34:43;;;;;;;2.72;0.45;;;15.50;99.90;;;;;;5035975;28;20021;-83
2022/08/17 04:37:11;;;;;;;1.67;0.50;;;15.40;99.90;;;;;;5036056;28;20455;-80
2022/08/17 04:42:05;;;;;;;1.48;0.70;;;15.40;99.90;;;;;;5033422;28;20079;-81
2022/08/17 04:42:27;;;;;;;1.10;0.40;;;15.40;99.90;;;;;;5036014;28;20033;-80
2022/08/17 04:44:55;;;;;;;2.55;0.60;;;15.40;99.90;;;;;;5036107;28;20487;-81
2022/08/17 04:47:22;;;;;;;0.95;0.60;;;15.40;99.90;;;;;;5035652;28;20116;-82
2022/08/17 04:49:52;;;;;;;0.93;0.68;;;15.50;99.90;;;;;;5036107;28;20033;-81
2022/08/17 04:52:20;;;;;;;1.33;0.50;;;15.60;99.90;;;;;;5035565;28;20029;-80
2022/08/17 04:54:47;;;;;;;1.65;0.90;;;15.70;99.90;;;;;;5036009;28;20052;-80
2022/08/17 04:57:15;;;;;;;2.97;0.95;;;15.70;99.90;;;;;;5035817;28;20080;-79
2022/08/17 04:59:43;;;;;;;1.73;0.60;;;15.70;99.90;;;;;;5035851;28;20067;-81
2022/08/17 05:02:14;;;;;;;1.60;0.70;;;15.70;99.90;;;;;;5035422;28;20084;-79
2022/08/17 05:04:41;;;;;;;2.55;0.65;;;15.70;99.90;;;;;;5033967;28;20024;-79
2022/08/17 05:07:09;;;;;;;2.90;0.32;;;15.60;99.90;;;;;;5033699;28;20497;-79
2022/08/17 05:09:37;;;;;;;0.30;0.30;;;15.60;99.90;;;;;;5034525;28;20032;-80
2022/08/17 05:12:05;;;;;;;1.67;0.50;;;15.60;99.90;;;;;;5034532;28;20025;-86
2022/08/17 05:14:33;;;;;;;2.45;0.55;;;15.60;99.90;;;;;;5004425;28;20490;-84
2022/08/17 05:17:01;;;;;;;0.82;0.57;;;15.60;99.90;;;;;;5026097;28;20227;-84
2022/08/17 05:19:29;;;;;;;1.05;0.50;;;15.60;99.90;;;;;;5027813;28;20122;-85
2022/08/17 05:21:57;;;;;;;2.13;0.60;;;15.50;99.90;;;;;;5032001;28;20026;-81
2022/08/17 05:24:24;;;;;;;1.40;0.50;;;15.50;99.90;;;;;;5033620;28;20044;-81
2022/08/17 05:26:52;;;;;;;0.50;0.45;;;15.50;99.90;;;;;;5033775;28;20041;-79
2022/08/17 05:29:20;;;;;;;2.08;0.70;;;15.50;99.90;;;;;;5033725;28;20057;-79
2022/08/17 05:31:47;;;;;;;1.20;0.60;;;15.50;99.90;;;;;;5033640;28;20127;-79
2022/08/17 05:34:15;;;;;;;0.40;0.40;;;15.50;99.90;;;;;;5033233;28;20095;-78
2022/08/17 05:36:44;;;;;;;2.55;0.50;;;15.50;99.90;;;;;;5031012;28;20017;-78
2022/08/17 05:39:13;;;;;;;1.38;0.50;;;15.60;99.90;;;;;;5017421;28;20048;-77
2022/08/17 05:41:41;;;;;;;0.75;0.40;;;15.50;99.90;;;;;;5035397;28;20029;-78
2022/08/17 05:44:09;;;;;;;1.33;0.40;;;15.50;99.90;;;;;;5035310;28;20025;-79
2022/08/17 05:46:42;;;;;;;2.08;0.70;;;15.50;99.90;;;;;;5035444;28;20037;-79
2022/08/17 05:49:11;;;;;;;1.65;0.65;;;15.40;99.90;;;;;;5034689;28;20078;-79
2022/08/17 05:52:07;;;;;;;1.13;0.82;;;15.40;99.90;;;;;;5035607;28;20385;-79
2022/08/17 05:55:17;;;;;;;1.98;0.70;;;15.40;99.90;;;;;;5034640;28;20025;-78
2022/08/17 05:58:03;;;;;;;1.27;0.52;;;15.40;99.90;;;;;;5035939;28;20025;-76
2022/08/17 06:00:49;;;;;;;;;;;15.40;99.90;;;;;;5034916;28;20053;-79
2022/08/17 06:03:32;;;;;;;1.13;1.00;;;15.40;99.90;;;;;;5038107;28;19917;-78
2022/08/17 06:06:16;;;;;;;1.70;0.60;;;15.40;99.90;;;;;;5035585;28;20025;-77
2022/08/17 06:09:20;;;;;;;8.25;0.90;;;15.40;99.90;;;;;;5035498;28;20053;-77
2022/08/17 06:11:51;;;;;;;3.20;1.30;;;15.40;99.90;;;;;;5036982;28;20017;-77
2022/08/17 06:14:49;;;;;;;3.85;1.15;;;15.40;99.90;;;;;;5053263;28;20027;-79
2022/08/17 06:17:20;;;;;;;2.08;0.65;;;15.30;99.90;;;;;;5052770;28;20115;-77
2022/08/17 06:19:58;;;;;;;4.43;0.80;;;15.30;99.90;;;;;;5047105;28;20442;-77
2022/08/17 06:22:35;;;;;;;2.15;0.60;;;15.20;99.90;;;;;;5030450;28;20021;-77
2022/08/17 06:25:17;;;;;;;2.42;0.93;;;15.20;99.90;;;;;;5024856;28;20025;-77
2022/08/17 06:28:23;;;;;;;6.68;1.38;;;15.20;99.90;;;;;;5031602;28;20033;-76
2022/08/17 06:30:57;;;;;;;1.77;0.52;;;15.20;99.90;;;;;;5009823;28;20045;-76
2022/08/17 06:33:35;;;;;;;3.10;1.00;;;15.10;99.90;;;;;;5032159;28;20029;-76
2022/08/17 06:36:29;;;;;;;2.58;0.90;;;15.10;99.90;;;;;;5034486;28;20032;-77
2022/08/17 06:39:17;;;;;;;3.08;1.02;;;15.00;99.90;;;;;;5034400;28;20355;-77
2022/08/17 06:41:57;;;;;;;5.90;1.77;;;14.90;99.90;;;;;;5034630;28;20426;-75
2022/08/17 06:44:40;;;;;;;1.58;0.80;;;14.90;99.90;;;;;;5021008;28;20030;-79
2022/08/17 06:47:31;;;;;;;2.08;0.88;;;14.80;99.90;;;;;;5014333;28;20121;-78
2022/08/17 06:50:26;;;;;;;4.13;1.20;;;14.70;99.90;;;;;;5014575;28;20014;-79
2022/08/17 06:53:13;;;;;;;3.42;1.33;;;14.70;99.90;;;;;;5005268;28;20061;-76
2022/08/17 06:56:10;;;;;;;5.93;1.15;;;14.60;99.90;;;;;;5014512;28;20121;-80
2022/08/17 06:58:42;;;;;;;6.43;1.25;;;14.50;99.90;;;;;;5013206;28;20076;-79
2022/08/17 07:01:29;;;;;;;2.38;0.95;;;14.50;99.90;;;;;;5012226;28;20038;-76
2022/08/17 07:03:57;;;;;;;1.92;0.90;;;14.40;99.90;;;;;;5015402;28;20101;-79
2022/08/17 07:06:33;;;;;;;5.82;1.00;;;14.40;99.90;;;;;;5013775;28;20049;-77
2022/08/17 07:09:02;;;;;;;;;;;14.30;99.90;;;;;;5014228;28;20034;-78
2022/08/17 07:11:33;;;;;;;2.85;0.77;;;14.20;99.90;;;;;;5021026;28;20310;-81
2022/08/17 07:14:19;;;;;;;2.28;0.77;;;14.20;99.90;;;;;;5033193;28;20053;-80
2022/08/17 07:16:49;;;;;;;;;;;14.10;99.90;;;;;;5033772;28;20028;-80
2022/08/17 07:19:21;;;;;;;2.10;1.00;;;14.10;99.90;;;;;;5033955;28;19905;-77
2022/08/17 07:22:14;;;;;;;2.95;1.00;;;14.00;99.90;;;;;;5033854;28;20014;-80
2022/08/17 07:24:59;;;;;;;2.38;0.82;;;14.00;99.90;;;;;;5014736;28;20031;-81
2022/08/17 07:27:39;;;;;;;6.28;1.75;;;13.90;99.90;;;;;;5033277;28;20033;-79
2022/08/17 07:30:15;;;;;;;1.33;0.85;;;13.90;99.90;;;;;;5032695;28;20378;-79
2022/08/17 07:32:44;;;;;;;;;;;13.80;99.90;;;;;;5033191;28;20021;-81
2022/08/17 07:35:28;;;;;;;4.75;1.50;;;13.80;99.90;;;;;;5033309;28;19913;-81
2022/08/17 07:38:16;;;;;;;1.52;1.02;;;13.80;99.90;;;;;;5047173;28;20029;-81
2022/08/17 07:40:48;;;;;;;4.07;1.13;;;13.70;99.90;;;;;;5051411;28;20116;-77
2022/08/17 07:43:25;;;;;;;3.55;1.33;;;13.60;99.90;;;;;;5051609;28;20028;-77
2022/08/17 07:48:45;;;;;;;4.60;1.80;;;13.50;99.90;;;;;;5052172;28;20452;-81
2022/08/17 07:51:20;;;;;;;8.23;2.45;;;13.40;99.90;;;;;;5052284;28;20021;-81
2022/08/17 07:53:48;;;;;;;4.23;1.87;;;13.40;99.90;;;;;;5051569;28;20107;-76
2022/08/17 07:56:39;;;;;;;3.00;1.77;;;13.40;99.90;;;;;;5052274;28;20261;-80
2022/08/17 07:59:16;;;;;;;2.78;1.58;;;13.30;99.90;;;;;;5055409;28;20067;-81
2022/08/17 08:01:57;;;;;;;2.92;1.40;;;13.30;99.90;;;;;;5038236;28;20048;-81
2022/08/17 08:04:31;;;;;;;2.80;1.40;;;13.20;99.90;;;;;;5055709;28;20619;-82
2022/08/17 08:07:01;;;;;;;1.63;1.10;;;13.20;99.90;;;;;;5052831;28;20063;-82
2022/08/17 08:10:00;;;;;;;2.92;1.20;;;13.10;99.90;;;;;;5055334;28;20017;-82
2022/08/17 08:12:39;;;;;;;1.95;1.00;;;13.10;99.90;;;;;;5052558;28;20037;-77
2022/08/17 08:15:32;;;;;;;3.78;0.90;;;13.10;99.90;;;;;;5055346;28;20021;-79
2022/08/17 08:18:19;;;;;;;4.53;1.73;;;13.10;99.90;;;;;;5055719;28;20024;-81
2022/08/17 08:21:08;;;;;;;3.97;1.55;;;13.10;99.90;;;;;;5054738;28;20040;-80
2022/08/17 08:23:56;;;;;;;6.10;1.60;;;13.00;99.90;;;;;;5055192;28;20036;-77
2022/08/17 08:26:59;;;;;;;2.40;1.40;;;13.00;99.90;;;;;;5055277;28;20033;-78
2022/08/17 08:29:32;;;;;;;3.22;1.40;;;12.90;99.90;;;;;;5042041;28;20044;-75
2022/08/17 08:32:24;;;;;;;4.50;1.88;;;12.80;99.90;;;;;;5052950;28;20029;-81
2022/08/17 08:35:16;;;;;;;3.97;1.33;;;12.70;99.90;;;;;;5035242;28;20024;-78
2022/08/17 08:38:08;;;;;;;2.47;1.17;;;12.60;99.90;;;;;;5037226;28;20032;-76
2022/08/17 08:40:53;;;;;;;5.05;1.40;;;12.60;99.90;;;;;;5036710;28;20032;-79
2022/08/17 08:43:35;;;;;;;2.53;0.98;;;12.50;99.90;;;;;;5035684;28;20115;-82
2022/08/17 08:46:20;;;;;;;4.15;1.17;;;12.50;99.90;;;;;;5035821;28;20154;-81
2022/08/17 08:49:12;;;;;;;2.17;1.05;;;12.50;99.90;;;;;;5035547;28;20064;-78
2022/08/17 08:51:45;;;;;;;2.72;0.90;;;12.50;99.90;;;;;;5036801;28;20024;-81
2022/08/17 08:54:33;;;;;;;4.05;1.35;;;12.40;99.90;;;;;;5017056;28;20025;-78
2022/08/17 08:57:20;;;;;;;7.90;1.67;;;12.40;99.90;;;;;;5035145;28;20363;-81
2022/08/17 09:00:08;;;;;;;2.53;0.82;;;12.30;99.90;;;;;;5035160;28;20052;-78
2022/08/17 09:02:51;;;;;;;3.85;1.33;;;12.30;99.90;;;;;;5034757;28;20050;-81
2022/08/17 09:05:55;;;;;;;3.85;1.10;;;12.20;99.90;;;;;;5035324;28;20009;-80
2022/08/17 09:08:53;;;;;;;3.63;1.48;;;12.20;99.90;;;;;;5036116;28;20032;-79
2022/08/17 09:11:29;;;;;;;5.15;1.23;;;12.10;99.90;;;;;;5037331;28;20033;-78
2022/08/17 09:14:21;;;;;;;4.03;1.35;;;12.10;99.90;;;;;;5034102;28;20026;-80
2022/08/17 09:17:12;;;;;;;4.35;1.58;;;12.00;99.90;;;;;;5035602;28;20025;-77
2022/08/17 09:19:43;;;;;;;2.45;1.13;;;12.00;99.90;;;;;;5034735;28;20025;-80
2022/08/17 09:22:32;;;;;;;4.47;1.73;;;12.00;99.90;;;;;;5034844;28;20033;-79
2022/08/17 09:25:25;;;;;;;3.88;1.23;;;12.00;99.90;;;;;;5034930;28;20020;-78
2022/08/17 09:28:05;;;;;;;2.17;1.10;;;11.90;99.90;;;;;;5036334;28;20033;-79
2022/08/17 09:30:52;;;;;;;2.92;1.00;;;11.90;99.90;;;;;;5035228;28;20032;-79
2022/08/17 09:33:26;;;;;;;2.28;1.05;;;11.90;99.90;;;;;;5032788;28;20542;-79
2022/08/17 09:36:04;;;;;;;7.13;1.73;;;11.80;99.90;;;;;;5032817;28;20053;-80
2022/08/17 09:38:50;;;;;;;3.50;1.38;;;11.80;99.90;;;;;;5033589;28;20028;-80
2022/08/17 09:41:40;;;;;;;3.13;1.38;;;11.70;99.90;;;;;;5034791;28;20026;-80
2022/08/17 09:44:26;;;;;;;6.78;1.70;;;11.70;99.90;;;;;;5034428;28;20013;-77
2022/08/17 09:47:04;;;;;;;7.50;1.35;;;11.60;99.90;;;;;;5033737;28;20025;-74
2022/08/17 09:49:50;;;;;;;2.15;0.88;;;11.70;99.90;;;;;;5033384;28;20028;-80
2022/08/17 09:52:18;;;;;;;6.78;1.60;;;11.60;99.90;;;;;;5033118;28;20049;-80
2022/08/17 09:54:47;;;;;;;3.97;1.05;;;11.60;99.90;;;;;;5033396;28;20074;-81
2022/08/17 09:57:39;;;;;;;4.47;1.27;;;11.60;99.90;;;;;;5034400;28;20021;-81
2022/08/17 10:00:22;;;;;;;2.20;1.00;;;11.60;99.90;;;;;;5033453;28;20053;-80
2022/08/17 10:03:07;;;;;;;2.83;0.85;;;11.50;99.90;;;;;;5012188;28;20136;-81
2022/08/17 10:06:01;;;;;;;3.55;1.23;;;11.50;99.90;;;;;;5032065;28;20073;-80
2022/08/17 10:08:51;;;;;;;3.58;1.23;;;11.50;99.90;;;;;;5032033;28;20580;-81
2022/08/17 10:14:32;;;;;;;4.68;1.23;;;11.40;99.90;;;;;;5036214;28;20083;-80
2022/08/17 10:17:07;;;;;;;4.10;1.42;;;11.40;99.90;;;;;;5033776;28;20450;-81
2022/08/17 10:19:58;;;;;;;3.70;1.17;;;11.40;99.90;;;;;;5033815;28;20122;-77
2022/08/17 10:28:13;;;;;;;2.92;1.30;;;11.40;99.90;;;;;;5033139;28;20277;-79
2022/08/17 10:30:50;;;;;;;6.22;1.30;;;11.40;99.90;;;;;;5035357;28;20022;-81
2022/08/17 10:33:25;;;;;;;2.30;1.38;;;11.40;99.90;;;;;;5031565;28;20208;-81
2022/08/17 10:36:06;;;;;;;2.58;1.10;;;11.30;99.90;;;;;;5032214;28;20367;-80
2022/08/17 10:38:40;;;;;;;4.53;1.70;;;11.30;99.90;;;;;;5032213;28;20095;-80
2022/08/17 10:41:38;;;;;;;10.02;1.40;;;11.30;99.90;;;;;;5030520;28;20059;-81
2022/08/17 10:44:12;;;;;;;4.35;1.17;;;11.20;99.90;;;;;;5035008;28;20028;-81
2022/08/17 10:47:01;;;;;;;2.95;1.42;;;11.20;99.90;;;;;;5033355;28;20037;-81
2022/08/17 10:49:38;;;;;;;2.55;1.33;;;11.20;99.90;;;;;;5010080;28;20021;-79
2022/08/17 10:52:29;;;;;;;5.03;1.23;;;11.20;99.90;;;;;;5032259;28;20040;-78
2022/08/17 10:55:04;;;;;;;3.83;1.20;;;11.20;99.90;;;;;;5031171;28;20386;-81
2022/08/17 10:57:32;;;;;;;3.25;1.48;;;11.20;99.90;;;;;;5034326;28;20029;-80
2022/08/17 11:00:14;;;;;;;6.72;1.50;;;11.10;99.90;;;;;;5033142;28;20025;-81
2022/08/17 11:03:16;;;;;;;6.20;1.95;;;11.10;99.90;;;;;;5032692;28;20091;-80
2022/08/17 11:06:20;;;;;;;5.05;1.25;;;11.10;99.90;;;;;;5004630;28;20052;-81
2022/08/17 11:09:25;;;;;;;4.78;1.13;;;11.10;99.90;;;;;;5033121;28;20030;-81
2022/08/17 11:11:56;;;;;;;8.40;1.67;;;11.10;99.90;;;;;;5029729;28;20042;-81
2022/08/17 11:14:27;;;;;;;5.13;1.38;;;11.10;99.90;;;;;;5032992;28;20025;-80
2022/08/17 11:17:19;;;;;;;4.10;1.08;;;11.10;99.90;;;;;;5000425;28;20441;-80
2022/08/17 11:20:08;;;;;;;5.50;0.90;;;11.10;99.90;;;;;;5032367;28;20017;-81
2022/08/17 11:23:00;;;;;;;5.47;1.98;;;11.10;99.90;;;;;;5032247;28;20026;-80
2022/08/17 11:25:42;;;;;;;3.97;1.48;;;11.10;99.90;;;;;;5032040;28;20024;-81
2022/08/17 11:28:21;;;;;;;1.73;1.10;;;11.10;99.90;;;;;;5016026;28;20120;-81
2022/08/17 11:30:54;;;;;;;2.63;1.35;;;11.10;99.90;;;;;;5031786;28;20032;-81
2022/08/17 11:33:34;;;;;;;6.70;1.67;;;11.10;99.90;;;;;;5013422;28;20478;-81
2022/08/17 11:36:17;;;;;;;3.22;1.25;;;11.10;99.90;;;;;;5032804;28;20087;-81
2022/08/17 11:39:03;;;;;;;5.28;1.20;;;11.10;99.90;;;;;;5033258;28;20022;-81
2022/08/17 11:41:53;;;;;;;4.13;1.48;;;11.10;99.90;;;;;;5032499;28;20037;-81
2022/08/17 11:44:36;;;;;;;3.17;1.60;;;11.10;99.90;;;;;;5031975;28;20482;-78
2022/08/17 11:53:40;;;;;;;8.63;2.47;;;10.90;99.90;;;;;;5032882;28;20037;-76
2022/08/17 11:56:30;;;;;;;9.93;2.28;;;10.90;99.90;;;;;;5015193;28;20018;-76
2022/08/17 11:58:59;;;;;;;6.13;2.47;;;10.80;99.90;;;;;;5032089;28;20021;-80
2022/08/17 12:01:28;;;;;;;7.47;2.28;;;10.70;99.90;;;;;;5031544;28;20471;-80
2022/08/17 12:04:21;;;;;;;4.82;2.05;;;10.70;99.90;;;;;;5016218;28;20430;-78
2022/08/17 12:07:28;;;;;;;4.72;2.00;;;10.60;99.90;;;;;;5028176;28;20391;-81
2022/08/17 12:09:56;;;;;;;2.65;1.70;;;10.60;99.90;;;;;;5022259;28;20026;-81
2022/08/17 12:12:32;;;;;;;3.38;1.80;;;10.50;99.90;;;;;;5032167;28;20052;-80
2022/08/17 12:15:00;;;;;;;3.63;1.73;;;10.50;99.90;;;;;;5032358;28;20549;-80
2022/08/17 12:17:30;;;;;;;6.40;2.35;;;10.50;99.90;;;;;;5031655;28;20021;-81
2022/08/17 12:20:38;;;;;;;6.57;1.60;;;10.40;99.90;;;;;;5033660;28;20013;-81
2022/08/17 12:23:35;;;;;;;3.67;2.00;;;10.40;99.90;;;;;;4993383;28;20068;-81
2022/08/17 12:26:10;;;;;;;4.78;1.90;;;10.40;99.90;;;;;;4974920;28;20101;-81
2022/08/17 12:28:43;;;;;;;4.93;1.98;;;10.40;99.90;;;;;;5020806;28;20160;-81
2022/08/17 12:31:30;;;;;;;4.63;1.67;;;10.40;99.90;;;;;;5032056;28;20389;-81
2022/08/17 12:33:59;;;;;;;3.95;2.13;;;10.50;99.90;;;;;;5030289;28;20032;-82
2022/08/17 12:36:29;;;;;;;5.60;1.45;;;10.50;99.90;;;;;;5028463;28;20470;-81
2022/08/17 12:39:05;;;;;;;5.50;1.58;;;10.40;99.90;;;;;;5031940;28;20527;-82
2022/08/17 12:41:45;;;;;;;5.32;1.67;;;10.40;99.90;;;;;;5031546;28;20071;-82
2022/08/17 12:44:19;;;;;;;5.50;1.58;;;10.40;99.90;;;;;;5032751;28;20425;-82
2022/08/17 12:46:55;;;;;;;4.60;1.80;;;10.40;99.90;;;;;;5033367;28;20025;-79
2022/08/17 12:49:25;;;;;;;3.55;1.52;;;10.40;99.90;;;;;;5035392;28;20096;-79
2022/08/17 12:52:14;;;;;;;2.90;1.83;;;10.40;99.90;;;;;;5034066;28;20167;-80
2022/08/17 12:54:56;;;;;;;1.83;1.52;;;10.40;99.90;;;;;;5028563;28;20474;-80
2022/08/17 12:57:38;;;;;;;2.60;1.73;;;10.30;99.90;;;;;;5034961;28;20033;-80
2022/08/17 13:00:39;;;;;;;2.92;1.77;;;10.30;99.90;;;;;;5033614;28;20017;-81
2022/08/17 13:03:18;;;;;;;4.22;1.38;;;10.30;99.90;;;;;;5033617;28;20034;-78
2022/08/17 13:06:09;;;;;;;3.22;1.45;;;10.20;99.90;;;;;;5033346;28;20035;-81
2022/08/17 13:08:39;;;;;;;3.85;2.25;;;10.20;99.90;;;;;;5034977;28;20049;-80
2022/08/17 13:11:25;;;;;;;3.97;1.88;;;10.20;99.90;;;;;;5033669;28;20017;-81
2022/08/17 13:13:54;;;;;;;3.33;1.80;;;10.20;99.90;;;;;;5034155;28;20018;-76
2022/08/17 13:16:28;;;;;;;7.03;1.77;;;10.20;99.90;;;;;;5035370;28;20108;-80
2022/08/17 13:19:07;;;;;;;7.05;2.28;;;10.10;99.90;;;;;;5035466;28;20467;-80
2022/08/17 13:21:36;;;;;;;3.65;2.00;;;10.10;99.90;;;;;;5034498;28;20032;-80
2022/08/17 13:24:31;;;;;;;3.60;1.70;;;10.10;99.90;;;;;;5032958;28;20371;-79
2022/08/17 13:27:11;;;;;;;3.88;1.63;;;10.00;99.90;;;;;;5034404;28;20044;-79
2022/08/17 13:29:44;;;;;;;3.92;2.33;;;10.00;99.90;;;;;;5035413;28;20112;-80
2022/08/17 13:32:15;;;;;;;5.72;2.28;;;9.90;99.90;;;;;;5035227;28;20044;-80
2022/08/17 13:34:46;;;;;;;3.22;2.08;;;9.90;99.90;;;;;;5035252;28;20052;-80
2022/08/17 13:37:31;;;;;;;4.97;2.20;;;9.90;99.90;;;;;;5035210;28;20525;-80
2022/08/17 13:40:07;;;;;;;5.68;2.30;;;9.80;99.90;;;;;;5034607;28;20049;-81
2022/08/17 13:42:54;;;;;;;8.85;2.92;;;9.80;99.90;;;;;;5035125;28;20029;-79
2022/08/17 13:45:30;;;;;;;8.50;2.17;;;9.80;99.90;;;;;;5034789;28;20014;-80
2022/08/17 13:48:08;;;;;;;3.15;2.00;;;9.80;99.90;;;;;;5034932;28;20034;-79
2022/08/17 13:50:48;;;;;;;6.15;2.55;;;9.70;99.90;;;;;;5034015;28;20385;-80
2022/08/17 13:53:35;;;;;;;5.38;2.92;;;9.70;99.90;;;;;;5032368;28;20031;-80
2022/08/17 13:56:14;;;;;;;5.28;3.03;;;9.70;99.90;;;;;;5034104;28;20025;-80
2022/08/17 13:59:02;;;;;;;6.00;2.75;;;9.70;99.90;;;;;;5035517;28;20371;-80
2022/08/17 14:01:31;;;;;;;5.60;2.05;;;9.60;99.90;;;;;;5035075;28;20024;-80
2022/08/17 14:04:01;;;;;;;6.38;2.00;;;9.60;99.90;;;;;;5035255;28;20030;-80
2022/08/17 14:06:41;;;;;;;3.53;1.80;;;9.60;99.90;;;;;;5034932;28;20025;-80